sensor_id;sensor_type;location;lat;lon;timestamp;temperature;humidity
69895;DHT22;57172;52.034;5.090;2023-02-01T00:02:14;6.40;68.60
69895;DHT22;57172;52.034;5.090;2023-02-01T00:04:41;6.40;68.70
69895;DHT22;57172;52.034;5.090;2023-02-01T00:07:08;6.40;68.70
69895;DHT22;57172;52.034;5.090;2023-02-01T00:09:38;6.40;68.80
69895;DHT22;57172;52.034;5.090;2023-02-01T00:12:05;6.40;68.80
69895;DHT22;57172;52.034;5.090;2023-02-01T00:14:32;6.50;68.90
69895;DHT22;57172;52.034;5.090;2023-02-01T00:17:05;6.50;68.90
69895;DHT22;57172;52.034;5.090;2023-02-01T00:19:35;6.50;68.90
69895;DHT22;57172;52.034;5.090;2023-02-01T00:22:02;6.50;68.90
69895;DHT22;57172;52.034;5.090;2023-02-01T00:24:29;6.60;68.90
69895;DHT22;57172;52.034;5.090;2023-02-01T00:26:55;6.60;68.80
69895;DHT22;57172;52.034;5.090;2023-02-01T00:29:22;6.60;68.90
69895;DHT22;57172;52.034;5.090;2023-02-01T00:31:51;6.60;68.70
69895;DHT22;57172;52.034;5.090;2023-02-01T00:34:19;6.60;68.70
69895;DHT22;57172;52.034;5.090;2023-02-01T00:36:47;6.60;68.70
69895;DHT22;57172;52.034;5.090;2023-02-01T00:39:14;6.50;68.70
69895;DHT22;57172;52.034;5.090;2023-02-01T00:41:41;6.60;68.70
69895;DHT22;57172;52.034;5.090;2023-02-01T00:44:09;6.60;68.70
69895;DHT22;57172;52.034;5.090;2023-02-01T00:46:36;6.60;68.70
69895;DHT22;57172;52.034;5.090;2023-02-01T00:49:03;6.60;68.60
69895;DHT22;57172;52.034;5.090;2023-02-01T00:51:31;6.60;68.40
69895;DHT22;57172;52.034;5.090;2023-02-01T00:53:58;6.60;68.40
69895;DHT22;57172;52.034;5.090;2023-02-01T00:56:25;6.60;68.30
69895;DHT22;57172;52.034;5.090;2023-02-01T00:58:54;6.60;68.30
69895;DHT22;57172;52.034;5.090;2023-02-01T01:01:21;6.60;68.20
69895;DHT22;57172;52.034;5.090;2023-02-01T01:03:51;6.60;68.20
69895;DHT22;57172;52.034;5.090;2023-02-01T01:06:24;6.60;68.10
69895;DHT22;57172;52.034;5.090;2023-02-01T01:08:52;6.60;68.00
69895;DHT22;57172;52.034;5.090;2023-02-01T01:11:23;6.60;68.00
69895;DHT22;57172;52.034;5.090;2023-02-01T01:13:52;6.60;67.80
69895;DHT22;57172;52.034;5.090;2023-02-01T01:16:19;6.60;67.90
69895;DHT22;57172;52.034;5.090;2023-02-01T01:18:47;6.60;67.80
69895;DHT22;57172;52.034;5.090;2023-02-01T01:21:15;6.60;67.70
69895;DHT22;57172;52.034;5.090;2023-02-01T01:23:42;6.70;67.70
69895;DHT22;57172;52.034;5.090;2023-02-01T01:26:14;6.70;67.70
69895;DHT22;57172;52.034;5.090;2023-02-01T01:28:41;6.70;67.50
69895;DHT22;57172;52.034;5.090;2023-02-01T01:31:13;6.70;67.50
69895;DHT22;57172;52.034;5.090;2023-02-01T01:33:41;6.70;67.50
69895;DHT22;57172;52.034;5.090;2023-02-01T01:36:09;6.70;67.50
69895;DHT22;57172;52.034;5.090;2023-02-01T01:38:40;6.70;67.50
69895;DHT22;57172;52.034;5.090;2023-02-01T01:41:08;6.80;67.50
69895;DHT22;57172;52.034;5.090;2023-02-01T01:43:59;6.70;67.50
69895;DHT22;57172;52.034;5.090;2023-02-01T01:46:35;6.80;67.40
69895;DHT22;57172;52.034;5.090;2023-02-01T01:51:52;6.90;67.30
69895;DHT22;57172;52.034;5.090;2023-02-01T01:54:24;6.90;67.10
69895;DHT22;57172;52.034;5.090;2023-02-01T01:56:58;6.90;67.10
69895;DHT22;57172;52.034;5.090;2023-02-01T01:59:27;6.90;67.10
69895;DHT22;57172;52.034;5.090;2023-02-01T02:01:55;7.00;67.20
69895;DHT22;57172;52.034;5.090;2023-02-01T02:04:22;7.00;67.30
69895;DHT22;57172;52.034;5.090;2023-02-01T02:09:27;7.00;67.40
69895;DHT22;57172;52.034;5.090;2023-02-01T02:11:54;7.10;67.40
69895;DHT22;57172;52.034;5.090;2023-02-01T02:14:22;7.10;67.60
69895;DHT22;57172;52.034;5.090;2023-02-01T02:17:18;7.10;67.70
69895;DHT22;57172;52.034;5.090;2023-02-01T02:33:38;7.40;68.00
69895;DHT22;57172;52.034;5.090;2023-02-01T02:36:34;7.40;68.00
69895;DHT22;57172;52.034;5.090;2023-02-01T02:42:12;7.40;67.90
69895;DHT22;57172;52.034;5.090;2023-02-01T02:51:01;7.40;67.70
69895;DHT22;57172;52.034;5.090;2023-02-01T02:53:54;7.50;67.90
69895;DHT22;57172;52.034;5.090;2023-02-01T02:56:42;7.50;67.70
69895;DHT22;57172;52.034;5.090;2023-02-01T02:59:29;7.50;67.70
69895;DHT22;57172;52.034;5.090;2023-02-01T03:02:16;7.50;67.70
69895;DHT22;57172;52.034;5.090;2023-02-01T03:05:02;7.50;67.80
69895;DHT22;57172;52.034;5.090;2023-02-01T03:16:06;7.50;67.60
69895;DHT22;57172;52.034;5.090;2023-02-01T03:21:26;7.50;67.30
69895;DHT22;57172;52.034;5.090;2023-02-01T03:23:58;7.40;67.20
69895;DHT22;57172;52.034;5.090;2023-02-01T03:26:29;7.40;67.10
69895;DHT22;57172;52.034;5.090;2023-02-01T03:29:05;7.40;67.10
69895;DHT22;57172;52.034;5.090;2023-02-01T03:31:34;7.40;67.00
69895;DHT22;57172;52.034;5.090;2023-02-01T03:34:02;7.30;66.80
69895;DHT22;57172;52.034;5.090;2023-02-01T03:36:38;7.30;66.90
69895;DHT22;57172;52.034;5.090;2023-02-01T03:39:13;7.30;66.90
69895;DHT22;57172;52.034;5.090;2023-02-01T03:41:45;7.30;66.80
69895;DHT22;57172;52.034;5.090;2023-02-01T03:44:22;7.20;66.80
69895;DHT22;57172;52.034;5.090;2023-02-01T03:49:24;7.20;66.90
69895;DHT22;57172;52.034;5.090;2023-02-01T03:51:53;7.10;67.00
69895;DHT22;57172;52.034;5.090;2023-02-01T03:54:22;7.10;67.10
69895;DHT22;57172;52.034;5.090;2023-02-01T03:56:52;7.10;67.20
69895;DHT22;57172;52.034;5.090;2023-02-01T03:59:21;7.10;67.50
69895;DHT22;57172;52.034;5.090;2023-02-01T04:01:48;7.10;67.60
69895;DHT22;57172;52.034;5.090;2023-02-01T04:04:15;7.10;67.70
69895;DHT22;57172;52.034;5.090;2023-02-01T04:06:50;7.20;67.90
69895;DHT22;57172;52.034;5.090;2023-02-01T04:09:20;7.20;67.80
69895;DHT22;57172;52.034;5.090;2023-02-01T04:11:47;7.20;67.90
69895;DHT22;57172;52.034;5.090;2023-02-01T04:14:13;7.20;67.90
69895;DHT22;57172;52.034;5.090;2023-02-01T04:16:40;7.20;67.80
69895;DHT22;57172;52.034;5.090;2023-02-01T04:19:07;7.30;67.70
69895;DHT22;57172;52.034;5.090;2023-02-01T04:21:34;7.30;67.60
69895;DHT22;57172;52.034;5.090;2023-02-01T04:24:01;7.30;67.50
69895;DHT22;57172;52.034;5.090;2023-02-01T04:26:28;7.30;67.30
69895;DHT22;57172;52.034;5.090;2023-02-01T04:28:55;7.30;67.10
69895;DHT22;57172;52.034;5.090;2023-02-01T04:31:22;7.40;67.20
69895;DHT22;57172;52.034;5.090;2023-02-01T04:33:53;7.40;67.00
69895;DHT22;57172;52.034;5.090;2023-02-01T04:36:21;7.40;66.90
69895;DHT22;57172;52.034;5.090;2023-02-01T04:38:49;7.40;67.00
69895;DHT22;57172;52.034;5.090;2023-02-01T04:41:17;7.40;67.00
69895;DHT22;57172;52.034;5.090;2023-02-01T04:43:50;7.50;66.80
69895;DHT22;57172;52.034;5.090;2023-02-01T04:46:18;7.50;66.70
69895;DHT22;57172;52.034;5.090;2023-02-01T04:48:45;7.50;66.70
69895;DHT22;57172;52.034;5.090;2023-02-01T04:51:12;7.40;66.70
69895;DHT22;57172;52.034;5.090;2023-02-01T04:53:39;7.40;66.70
69895;DHT22;57172;52.034;5.090;2023-02-01T04:56:08;7.40;66.70
69895;DHT22;57172;52.034;5.090;2023-02-01T04:58:37;7.40;66.80
69895;DHT22;57172;52.034;5.090;2023-02-01T05:01:05;7.30;66.90
69895;DHT22;57172;52.034;5.090;2023-02-01T05:03:33;7.30;67.00
69895;DHT22;57172;52.034;5.090;2023-02-01T05:06:00;7.20;67.10
69895;DHT22;57172;52.034;5.090;2023-02-01T05:08:27;7.20;67.20
69895;DHT22;57172;52.034;5.090;2023-02-01T05:10:55;7.10;67.40
69895;DHT22;57172;52.034;5.090;2023-02-01T05:13:22;7.10;67.60
69895;DHT22;57172;52.034;5.090;2023-02-01T05:16:08;7.10;67.80
69895;DHT22;57172;52.034;5.090;2023-02-01T05:18:35;7.10;67.90
69895;DHT22;57172;52.034;5.090;2023-02-01T05:21:01;7.10;68.00
69895;DHT22;57172;52.034;5.090;2023-02-01T05:23:28;7.00;68.00
69895;DHT22;57172;52.034;5.090;2023-02-01T05:26:01;7.00;68.00
69895;DHT22;57172;52.034;5.090;2023-02-01T05:28:28;7.00;68.10
69895;DHT22;57172;52.034;5.090;2023-02-01T05:30:55;7.00;68.10
69895;DHT22;57172;52.034;5.090;2023-02-01T05:33:22;7.00;68.20
69895;DHT22;57172;52.034;5.090;2023-02-01T05:35:49;7.00;68.20
69895;DHT22;57172;52.034;5.090;2023-02-01T05:38:17;6.90;68.30
69895;DHT22;57172;52.034;5.090;2023-02-01T05:40:43;6.90;68.40
69895;DHT22;57172;52.034;5.090;2023-02-01T05:43:16;6.90;68.40
69895;DHT22;57172;52.034;5.090;2023-02-01T05:45:43;6.90;68.60
69895;DHT22;57172;52.034;5.090;2023-02-01T05:48:09;6.90;68.90
69895;DHT22;57172;52.034;5.090;2023-02-01T05:50:37;6.90;69.10
69895;DHT22;57172;52.034;5.090;2023-02-01T05:53:08;6.90;69.10
69895;DHT22;57172;52.034;5.090;2023-02-01T05:55:36;6.90;69.10
69895;DHT22;57172;52.034;5.090;2023-02-01T05:58:03;7.00;69.10
69895;DHT22;57172;52.034;5.090;2023-02-01T06:00:31;7.00;69.10
69895;DHT22;57172;52.034;5.090;2023-02-01T06:02:58;7.00;69.10
69895;DHT22;57172;52.034;5.090;2023-02-01T06:05:24;7.00;69.00
69895;DHT22;57172;52.034;5.090;2023-02-01T06:07:52;7.00;69.10
69895;DHT22;57172;52.034;5.090;2023-02-01T06:10:19;7.00;69.10
69895;DHT22;57172;52.034;5.090;2023-02-01T06:12:47;7.00;69.10
69895;DHT22;57172;52.034;5.090;2023-02-01T06:15:14;6.90;69.00
69895;DHT22;57172;52.034;5.090;2023-02-01T06:17:45;6.90;69.00
69895;DHT22;57172;52.034;5.090;2023-02-01T06:20:14;6.90;69.10
69895;DHT22;57172;52.034;5.090;2023-02-01T06:22:41;6.90;69.10
69895;DHT22;57172;52.034;5.090;2023-02-01T06:25:09;6.90;69.20
69895;DHT22;57172;52.034;5.090;2023-02-01T06:27:37;6.90;69.30
69895;DHT22;57172;52.034;5.090;2023-02-01T06:30:05;6.80;69.50
69895;DHT22;57172;52.034;5.090;2023-02-01T06:32:33;6.80;69.70
69895;DHT22;57172;52.034;5.090;2023-02-01T06:35:00;6.80;69.80
69895;DHT22;57172;52.034;5.090;2023-02-01T06:37:27;6.80;69.80
69895;DHT22;57172;52.034;5.090;2023-02-01T06:39:56;6.90;69.80
69895;DHT22;57172;52.034;5.090;2023-02-01T06:42:22;6.90;69.80
69895;DHT22;57172;52.034;5.090;2023-02-01T06:44:49;6.90;69.70
69895;DHT22;57172;52.034;5.090;2023-02-01T06:47:16;6.90;69.70
69895;DHT22;57172;52.034;5.090;2023-02-01T06:49:43;6.90;69.70
69895;DHT22;57172;52.034;5.090;2023-02-01T06:52:10;6.90;69.70
69895;DHT22;57172;52.034;5.090;2023-02-01T06:54:37;6.90;69.70
69895;DHT22;57172;52.034;5.090;2023-02-01T06:57:04;7.00;69.80
69895;DHT22;57172;52.034;5.090;2023-02-01T06:59:31;7.00;69.80
69895;DHT22;57172;52.034;5.090;2023-02-01T07:01:57;7.00;69.80
69895;DHT22;57172;52.034;5.090;2023-02-01T07:04:24;7.00;69.90
69895;DHT22;57172;52.034;5.090;2023-02-01T07:06:51;7.00;69.90
69895;DHT22;57172;52.034;5.090;2023-02-01T07:09:18;7.00;69.70
69895;DHT22;57172;52.034;5.090;2023-02-01T07:11:45;7.00;69.70
69895;DHT22;57172;52.034;5.090;2023-02-01T07:14:12;7.10;69.60
69895;DHT22;57172;52.034;5.090;2023-02-01T07:16:39;7.10;69.50
69895;DHT22;57172;52.034;5.090;2023-02-01T07:19:06;7.10;69.30
69895;DHT22;57172;52.034;5.090;2023-02-01T07:21:33;7.10;69.30
69895;DHT22;57172;52.034;5.090;2023-02-01T07:24:00;7.10;69.20
69895;DHT22;57172;52.034;5.090;2023-02-01T07:26:27;7.20;69.10
69895;DHT22;57172;52.034;5.090;2023-02-01T07:28:53;7.20;69.10
69895;DHT22;57172;52.034;5.090;2023-02-01T07:31:20;7.20;69.00
69895;DHT22;57172;52.034;5.090;2023-02-01T07:33:49;7.30;68.80
69895;DHT22;57172;52.034;5.090;2023-02-01T07:36:20;7.30;68.80
69895;DHT22;57172;52.034;5.090;2023-02-01T07:38:47;7.30;68.80
69895;DHT22;57172;52.034;5.090;2023-02-01T07:41:14;7.30;68.80
69895;DHT22;57172;52.034;5.090;2023-02-01T07:43:41;7.30;68.90
69895;DHT22;57172;52.034;5.090;2023-02-01T07:46:09;7.30;68.80
69895;DHT22;57172;52.034;5.090;2023-02-01T07:48:36;7.20;68.80
69895;DHT22;57172;52.034;5.090;2023-02-01T07:51:06;7.20;68.80
69895;DHT22;57172;52.034;5.090;2023-02-01T07:53:35;7.20;68.80
69895;DHT22;57172;52.034;5.090;2023-02-01T07:56:03;7.20;68.90
69895;DHT22;57172;52.034;5.090;2023-02-01T07:58:30;7.20;69.10
69895;DHT22;57172;52.034;5.090;2023-02-01T08:00:57;7.20;69.10
69895;DHT22;57172;52.034;5.090;2023-02-01T08:03:43;7.20;69.10
69895;DHT22;57172;52.034;5.090;2023-02-01T08:06:09;7.20;69.20
69895;DHT22;57172;52.034;5.090;2023-02-01T08:08:36;7.20;69.20
69895;DHT22;57172;52.034;5.090;2023-02-01T08:11:05;7.20;69.40
69895;DHT22;57172;52.034;5.090;2023-02-01T08:13:35;7.20;69.40
69895;DHT22;57172;52.034;5.090;2023-02-01T08:16:04;7.20;69.40
69895;DHT22;57172;52.034;5.090;2023-02-01T08:18:32;7.30;69.40
69895;DHT22;57172;52.034;5.090;2023-02-01T08:21:12;7.30;69.40
69895;DHT22;57172;52.034;5.090;2023-02-01T08:23:41;7.30;69.40
69895;DHT22;57172;52.034;5.090;2023-02-01T08:26:10;7.30;69.20
69895;DHT22;57172;52.034;5.090;2023-02-01T08:28:39;7.30;69.20
69895;DHT22;57172;52.034;5.090;2023-02-01T08:31:11;7.40;69.40
69895;DHT22;57172;52.034;5.090;2023-02-01T08:33:38;7.40;69.40
69895;DHT22;57172;52.034;5.090;2023-02-01T08:36:09;7.50;69.40
69895;DHT22;57172;52.034;5.090;2023-02-01T08:38:38;7.50;69.50
69895;DHT22;57172;52.034;5.090;2023-02-01T08:41:17;7.50;69.20
69895;DHT22;57172;52.034;5.090;2023-02-01T08:43:45;7.70;69.50
69895;DHT22;57172;52.034;5.090;2023-02-01T08:46:13;7.70;69.60
69895;DHT22;57172;52.034;5.090;2023-02-01T08:48:40;7.80;69.30
69895;DHT22;57172;52.034;5.090;2023-02-01T08:51:10;7.90;68.90
69895;DHT22;57172;52.034;5.090;2023-02-01T08:53:39;8.00;69.20
69895;DHT22;57172;52.034;5.090;2023-02-01T08:56:11;8.20;69.40
69895;DHT22;57172;52.034;5.090;2023-02-01T08:58:38;8.30;68.70
69895;DHT22;57172;52.034;5.090;2023-02-01T09:01:08;8.40;68.20
69895;DHT22;57172;52.034;5.090;2023-02-01T09:03:35;8.40;67.30
69895;DHT22;57172;52.034;5.090;2023-02-01T09:06:04;8.40;67.30
69895;DHT22;57172;52.034;5.090;2023-02-01T09:08:31;8.50;67.00
69895;DHT22;57172;52.034;5.090;2023-02-01T09:11:03;8.50;66.90
69895;DHT22;57172;52.034;5.090;2023-02-01T09:13:30;8.50;67.60
69895;DHT22;57172;52.034;5.090;2023-02-01T09:15:57;8.70;67.70
69895;DHT22;57172;52.034;5.090;2023-02-01T09:18:26;8.80;66.70
69895;DHT22;57172;52.034;5.090;2023-02-01T09:20:53;8.80;66.60
69895;DHT22;57172;52.034;5.090;2023-02-01T09:23:20;8.90;66.60
69895;DHT22;57172;52.034;5.090;2023-02-01T09:25:47;9.00;66.40
69895;DHT22;57172;52.034;5.090;2023-02-01T09:28:17;9.00;65.40
69895;DHT22;57172;52.034;5.090;2023-02-01T09:30:45;9.00;65.10
69895;DHT22;57172;52.034;5.090;2023-02-01T09:33:12;8.90;65.50
69895;DHT22;57172;52.034;5.090;2023-02-01T09:35:39;8.90;65.00
69895;DHT22;57172;52.034;5.090;2023-02-01T09:38:06;8.90;65.20
69895;DHT22;57172;52.034;5.090;2023-02-01T09:40:34;8.80;65.40
69895;DHT22;57172;52.034;5.090;2023-02-01T09:43:16;8.80;65.40
69895;DHT22;57172;52.034;5.090;2023-02-01T09:48:38;8.60;65.90
69895;DHT22;57172;52.034;5.090;2023-02-01T09:51:14;8.60;66.20
69895;DHT22;57172;52.034;5.090;2023-02-01T09:53:46;8.60;66.20
69895;DHT22;57172;52.034;5.090;2023-02-01T09:56:18;8.60;66.30
69895;DHT22;57172;52.034;5.090;2023-02-01T09:58:48;8.60;66.00
69895;DHT22;57172;52.034;5.090;2023-02-01T10:01:21;8.60;65.70
69895;DHT22;57172;52.034;5.090;2023-02-01T10:03:51;8.60;65.40
69895;DHT22;57172;52.034;5.090;2023-02-01T10:17:20;8.40;66.10
69895;DHT22;57172;52.034;5.090;2023-02-01T10:22:43;8.10;67.60
69895;DHT22;57172;52.034;5.090;2023-02-01T10:25:55;8.00;68.00
69895;DHT22;57172;52.034;5.090;2023-02-01T10:28:24;7.90;68.10
69895;DHT22;57172;52.034;5.090;2023-02-01T10:30:57;7.90;68.40
69895;DHT22;57172;52.034;5.090;2023-02-01T10:38:32;8.00;68.00
69895;DHT22;57172;52.034;5.090;2023-02-01T10:41:15;8.10;67.70
69895;DHT22;57172;52.034;5.090;2023-02-01T10:43:43;8.10;67.80
69895;DHT22;57172;52.034;5.090;2023-02-01T10:46:11;8.20;67.80
69895;DHT22;57172;52.034;5.090;2023-02-01T10:48:38;8.30;67.10
69895;DHT22;57172;52.034;5.090;2023-02-01T10:51:16;8.30;66.70
69895;DHT22;57172;52.034;5.090;2023-02-01T10:53:53;8.30;66.60
69895;DHT22;57172;52.034;5.090;2023-02-01T10:56:24;8.40;66.70
69895;DHT22;57172;52.034;5.090;2023-02-01T10:58:52;8.40;66.70
69895;DHT22;57172;52.034;5.090;2023-02-01T11:01:36;8.50;66.40
69895;DHT22;57172;52.034;5.090;2023-02-01T11:04:05;8.50;66.70
69895;DHT22;57172;52.034;5.090;2023-02-01T11:06:51;8.60;66.60
69895;DHT22;57172;52.034;5.090;2023-02-01T11:09:24;8.60;66.40
69895;DHT22;57172;52.034;5.090;2023-02-01T11:14:39;8.70;66.30
69895;DHT22;57172;52.034;5.090;2023-02-01T11:19:55;8.60;67.00
69895;DHT22;57172;52.034;5.090;2023-02-01T11:22:25;8.50;67.60
69895;DHT22;57172;52.034;5.090;2023-02-01T11:24:52;8.40;68.00
69895;DHT22;57172;52.034;5.090;2023-02-01T11:27:22;8.30;68.60
69895;DHT22;57172;52.034;5.090;2023-02-01T11:29:58;8.20;69.00
69895;DHT22;57172;52.034;5.090;2023-02-01T11:32:26;8.10;69.20
69895;DHT22;57172;52.034;5.090;2023-02-01T11:35:04;8.10;69.50
69895;DHT22;57172;52.034;5.090;2023-02-01T11:37:36;8.10;69.50
69895;DHT22;57172;52.034;5.090;2023-02-01T11:40:29;8.10;69.60
69895;DHT22;57172;52.034;5.090;2023-02-01T11:43:08;8.20;69.30
69895;DHT22;57172;52.034;5.090;2023-02-01T11:45:38;8.30;68.90
69895;DHT22;57172;52.034;5.090;2023-02-01T11:48:13;8.40;68.50
69895;DHT22;57172;52.034;5.090;2023-02-01T11:51:00;8.40;68.30
69895;DHT22;57172;52.034;5.090;2023-02-01T11:53:59;8.50;68.00
69895;DHT22;57172;52.034;5.090;2023-02-01T12:07:33;8.70;67.40
69895;DHT22;57172;52.034;5.090;2023-02-01T12:10:15;8.70;66.90
69895;DHT22;57172;52.034;5.090;2023-02-01T12:21:54;9.10;66.10
69895;DHT22;57172;52.034;5.090;2023-02-01T12:24:52;9.20;65.90
69895;DHT22;57172;52.034;5.090;2023-02-01T12:30:28;9.30;65.10
69895;DHT22;57172;52.034;5.090;2023-02-01T12:39:40;9.40;64.60
69895;DHT22;57172;52.034;5.090;2023-02-01T12:45:02;9.20;64.70
69895;DHT22;57172;52.034;5.090;2023-02-01T12:47:41;9.20;64.70
69895;DHT22;57172;52.034;5.090;2023-02-01T12:52:50;9.20;65.10
69895;DHT22;57172;52.034;5.090;2023-02-01T12:55:36;9.20;65.00
69895;DHT22;57172;52.034;5.090;2023-02-01T12:58:26;9.30;65.10
69895;DHT22;57172;52.034;5.090;2023-02-01T13:06:39;9.50;64.70
69895;DHT22;57172;52.034;5.090;2023-02-01T13:09:22;9.60;64.30
69895;DHT22;57172;52.034;5.090;2023-02-01T13:11:52;9.60;64.60
69895;DHT22;57172;52.034;5.090;2023-02-01T13:14:33;9.70;64.30
69895;DHT22;57172;52.034;5.090;2023-02-01T13:20:03;9.70;63.60
69895;DHT22;57172;52.034;5.090;2023-02-01T13:22:36;9.70;63.80
69895;DHT22;57172;52.034;5.090;2023-02-01T13:25:29;9.70;63.90
69895;DHT22;57172;52.034;5.090;2023-02-01T13:28:04;9.70;63.90
69895;DHT22;57172;52.034;5.090;2023-02-01T13:36:37;9.60;64.10
69895;DHT22;57172;52.034;5.090;2023-02-01T13:42:43;9.50;64.30
69895;DHT22;57172;52.034;5.090;2023-02-01T13:44:56;9.50;64.50
69895;DHT22;57172;52.034;5.090;2023-02-01T13:47:27;9.40;64.70
69895;DHT22;57172;52.034;5.090;2023-02-01T13:49:57;9.40;65.00
69895;DHT22;57172;52.034;5.090;2023-02-01T13:52:29;9.40;65.00
69895;DHT22;57172;52.034;5.090;2023-02-01T13:57:51;9.40;65.10
69895;DHT22;57172;52.034;5.090;2023-02-01T14:00:37;9.30;65.30
69895;DHT22;57172;52.034;5.090;2023-02-01T14:10:55;9.30;65.70
69895;DHT22;57172;52.034;5.090;2023-02-01T14:31:54;9.30;66.10
69895;DHT22;57172;52.034;5.090;2023-02-01T14:37:01;9.30;66.30
69895;DHT22;57172;52.034;5.090;2023-02-01T14:44:45;9.30;66.30
69895;DHT22;57172;52.034;5.090;2023-02-01T14:47:27;9.20;66.60
69895;DHT22;57172;52.034;5.090;2023-02-01T14:52:50;9.20;66.80
69895;DHT22;57172;52.034;5.090;2023-02-01T15:01:27;9.10;67.20
69895;DHT22;57172;52.034;5.090;2023-02-01T15:04:04;9.10;67.40
69895;DHT22;57172;52.034;5.090;2023-02-01T15:06:48;9.10;67.40
69895;DHT22;57172;52.034;5.090;2023-02-01T15:09:29;9.10;67.60
69895;DHT22;57172;52.034;5.090;2023-02-01T15:14:44;9.10;67.70
69895;DHT22;57172;52.034;5.090;2023-02-01T15:22:38;9.10;67.80
69895;DHT22;57172;52.034;5.090;2023-02-01T15:25:17;9.10;67.80
69895;DHT22;57172;52.034;5.090;2023-02-01T15:27:44;9.10;68.00
69895;DHT22;57172;52.034;5.090;2023-02-01T15:30:22;9.10;68.00
69895;DHT22;57172;52.034;5.090;2023-02-01T15:32:50;9.10;68.10
69895;DHT22;57172;52.034;5.090;2023-02-01T15:35:51;9.10;68.20
69895;DHT22;57172;52.034;5.090;2023-02-01T15:41:30;9.10;68.30
69895;DHT22;57172;52.034;5.090;2023-02-01T15:46:36;9.10;68.40
69895;DHT22;57172;52.034;5.090;2023-02-01T15:49:04;9.10;68.50
69895;DHT22;57172;52.034;5.090;2023-02-01T15:51:32;9.10;68.50
69895;DHT22;57172;52.034;5.090;2023-02-01T15:54:04;9.10;68.40
69895;DHT22;57172;52.034;5.090;2023-02-01T15:56:34;9.10;68.60
69895;DHT22;57172;52.034;5.090;2023-02-01T15:59:05;9.10;68.50
69895;DHT22;57172;52.034;5.090;2023-02-01T16:01:37;9.10;68.50
69895;DHT22;57172;52.034;5.090;2023-02-01T16:04:25;9.10;68.40
69895;DHT22;57172;52.034;5.090;2023-02-01T16:06:58;9.10;68.30
69895;DHT22;57172;52.034;5.090;2023-02-01T16:09:38;9.10;68.20
69895;DHT22;57172;52.034;5.090;2023-02-01T16:12:29;9.00;68.30
69895;DHT22;57172;52.034;5.090;2023-02-01T16:14:57;9.00;68.30
69895;DHT22;57172;52.034;5.090;2023-02-01T16:17:24;9.00;68.30
69895;DHT22;57172;52.034;5.090;2023-02-01T16:19:51;9.00;68.50
69895;DHT22;57172;52.034;5.090;2023-02-01T16:22:18;9.00;68.40
69895;DHT22;57172;52.034;5.090;2023-02-01T16:24:45;9.00;68.50
69895;DHT22;57172;52.034;5.090;2023-02-01T16:27:12;9.10;68.40
69895;DHT22;57172;52.034;5.090;2023-02-01T16:29:39;9.10;68.30
69895;DHT22;57172;52.034;5.090;2023-02-01T16:32:18;9.10;68.40
69895;DHT22;57172;52.034;5.090;2023-02-01T16:34:46;9.10;68.20
69895;DHT22;57172;52.034;5.090;2023-02-01T16:37:18;9.10;68.20
69895;DHT22;57172;52.034;5.090;2023-02-01T16:39:45;9.10;68.00
69895;DHT22;57172;52.034;5.090;2023-02-01T16:42:13;9.20;67.90
69895;DHT22;57172;52.034;5.090;2023-02-01T16:44:40;9.20;67.90
69895;DHT22;57172;52.034;5.090;2023-02-01T16:47:20;9.20;68.00
69895;DHT22;57172;52.034;5.090;2023-02-01T16:49:50;9.20;67.80
69895;DHT22;57172;52.034;5.090;2023-02-01T16:52:21;9.20;67.70
69895;DHT22;57172;52.034;5.090;2023-02-01T16:54:48;9.20;67.70
69895;DHT22;57172;52.034;5.090;2023-02-01T16:57:18;9.30;67.60
69895;DHT22;57172;52.034;5.090;2023-02-01T16:59:46;9.30;67.60
69895;DHT22;57172;52.034;5.090;2023-02-01T17:02:18;9.30;67.50
69895;DHT22;57172;52.034;5.090;2023-02-01T17:04:48;9.30;67.50
69895;DHT22;57172;52.034;5.090;2023-02-01T17:07:17;9.30;67.50
69895;DHT22;57172;52.034;5.090;2023-02-01T17:09:46;9.30;67.60
69895;DHT22;57172;52.034;5.090;2023-02-01T17:12:25;9.40;67.70
69895;DHT22;57172;52.034;5.090;2023-02-01T17:14:53;9.30;67.60
69895;DHT22;57172;52.034;5.090;2023-02-01T17:17:20;9.30;67.60
69895;DHT22;57172;52.034;5.090;2023-02-01T17:20:04;9.30;67.60
69895;DHT22;57172;52.034;5.090;2023-02-01T17:22:31;9.30;67.60
69895;DHT22;57172;52.034;5.090;2023-02-01T17:24:58;9.40;67.60
69895;DHT22;57172;52.034;5.090;2023-02-01T17:27:25;9.40;67.70
69895;DHT22;57172;52.034;5.090;2023-02-01T17:29:51;9.40;67.70
69895;DHT22;57172;52.034;5.090;2023-02-01T17:32:22;9.40;67.80
69895;DHT22;57172;52.034;5.090;2023-02-01T17:34:49;9.40;67.90
69895;DHT22;57172;52.034;5.090;2023-02-01T17:37:29;9.40;67.90
69895;DHT22;57172;52.034;5.090;2023-02-01T17:39:56;9.40;68.00
69895;DHT22;57172;52.034;5.090;2023-02-01T17:42:25;9.40;68.00
69895;DHT22;57172;52.034;5.090;2023-02-01T17:44:56;9.40;68.00
69895;DHT22;57172;52.034;5.090;2023-02-01T17:47:23;9.40;68.10
69895;DHT22;57172;52.034;5.090;2023-02-01T17:49:50;9.40;68.10
69895;DHT22;57172;52.034;5.090;2023-02-01T17:52:23;9.40;68.30
69895;DHT22;57172;52.034;5.090;2023-02-01T17:54:50;9.40;68.30
69895;DHT22;57172;52.034;5.090;2023-02-01T17:57:20;9.40;68.40
69895;DHT22;57172;52.034;5.090;2023-02-01T17:59:47;9.40;68.50
69895;DHT22;57172;52.034;5.090;2023-02-01T18:02:23;9.40;68.60
69895;DHT22;57172;52.034;5.090;2023-02-01T18:04:50;9.40;68.70
69895;DHT22;57172;52.034;5.090;2023-02-01T18:07:17;9.40;68.80
69895;DHT22;57172;52.034;5.090;2023-02-01T18:09:44;9.40;68.90
69895;DHT22;57172;52.034;5.090;2023-02-01T18:12:18;9.40;69.00
69895;DHT22;57172;52.034;5.090;2023-02-01T18:14:46;9.40;69.10
69895;DHT22;57172;52.034;5.090;2023-02-01T18:17:13;9.40;69.10
69895;DHT22;57172;52.034;5.090;2023-02-01T18:19:40;9.40;69.10
69895;DHT22;57172;52.034;5.090;2023-02-01T18:22:19;9.40;69.20
69895;DHT22;57172;52.034;5.090;2023-02-01T18:24:48;9.40;69.20
69895;DHT22;57172;52.034;5.090;2023-02-01T18:27:15;9.40;69.10
69895;DHT22;57172;52.034;5.090;2023-02-01T18:29:41;9.40;69.10
69895;DHT22;57172;52.034;5.090;2023-02-01T18:32:08;9.40;69.10
69895;DHT22;57172;52.034;5.090;2023-02-01T18:34:36;9.40;69.20
69895;DHT22;57172;52.034;5.090;2023-02-01T18:37:02;9.40;69.20
69895;DHT22;57172;52.034;5.090;2023-02-01T18:39:30;9.40;69.10
69895;DHT22;57172;52.034;5.090;2023-02-01T18:41:57;9.30;69.20
69895;DHT22;57172;52.034;5.090;2023-02-01T18:44:24;9.40;69.00
69895;DHT22;57172;52.034;5.090;2023-02-01T18:46:51;9.40;68.90
69895;DHT22;57172;52.034;5.090;2023-02-01T18:49:18;9.40;68.90
69895;DHT22;57172;52.034;5.090;2023-02-01T18:51:45;9.40;68.90
69895;DHT22;57172;52.034;5.090;2023-02-01T18:54:12;9.40;68.80
69895;DHT22;57172;52.034;5.090;2023-02-01T18:56:39;9.40;68.70
69895;DHT22;57172;52.034;5.090;2023-02-01T18:59:06;9.50;68.70
69895;DHT22;57172;52.034;5.090;2023-02-01T19:01:34;9.50;68.60
69895;DHT22;57172;52.034;5.090;2023-02-01T19:04:03;9.40;68.60
69895;DHT22;57172;52.034;5.090;2023-02-01T19:06:50;9.50;68.60
69895;DHT22;57172;52.034;5.090;2023-02-01T19:09:17;9.50;68.60
69895;DHT22;57172;52.034;5.090;2023-02-01T19:11:44;9.50;68.60